Aérodrome :
LOGIN :

S'inscrire | Disclaimer

   EN    FR    IT 

 










Légende :    VFR   VFR Marginal   IFR   IFR Intensif   IFR Très Intensif
Visi : 
Plafond : 
>= 8 km
>= 3000ft
5 à 8 km
1000 à 3000 ft
1500m à 5 km
500 à 1000 ft
800 à 1500m
200 à 500 ft
< 800m
< 200 ft
Symboles :   Orages  Brouillard  Fortes neiges  Fortes précipitations  Vent > 20 kt
SIGMETs :   Divers  Orages  Givrage  Turbulence  Onde Orograph.  Cendres Volcan.







- Altitude de l'aérodrome : 138 ft
- Code IATA : BIO


LEBB - Bilbao

DERNIER METAR :
  • 231600Z 33009KT 300V360 5000 HZ BKN025 13/10 Q1016 TEMPO 3000 BR BKN014

METARs EXPIRÉS :
  • 231530Z 34008KT 300V020 5000 HZ BKN025 13/10 Q1016 TEMPO 3000 BR BKN014
  • 231500Z 32009KT 5000 HZ BKN025 14/09 Q1016 TEMPO 3000 BR BKN014
  • 231430Z 32007KT 5000 BR BKN020 13/09 Q1016 TEMPO 3000 BR BKN014
  • 231400Z 33009KT 290V010 5000 BR BKN020 13/09 Q1016 TEMPO BKN014
  • 231330Z 31008KT 260V350 6000 BKN020 13/09 Q1017 TEMPO BKN014
  • 231300Z 30005KT 250V350 7000 FEW018 SCT024 13/09 Q1017 TEMPO BKN014

TAF TAF LEBB
Valide du 23 à 12h jusqu'au 24 à 12h UTC


231100Z 2312/2412 29008KT 7000 SCT014 BKN020 TX15/2314Z TN06/2406Z
PROB30
TEMPO 2314/2318 4500 -DZ BR BKN014
TEMPO 2318/2410 35010KT 4000 -DZ BR BKN012
PROB40
TEMPO 2321/2405 35010KT 2500 RA BKN008
Pas de NOTAMs connus pour ce terrain.
1 SIGMET publié pour la FIR Madrid (LECM) :
 
Orages noyés dans la masse
LECM SIGMET 7 VALID 231500/231700 LEVA
LECM MADRID FIR/UIR EMBD TS OBS AT 1446Z WI N3720 W00530 - N3610 W00530 - N3620 W00220 - N3930 W00130 - N3930 W00350 TOP FL320 STNR NC=



MET'MAP, la Météo Aéronautique d'un coup d'oeil ! - Copyright ORBIFLY Décembre 2007 - Disclaimer

ORBIFLY MET'MAP TEAM :

Programmation & Développement : Alexandra Zaïnal
Conception & Développement : Baudouin d'Aumeries
Co-Programmation & Développement : Marc-Olivier Méhu
Soutien technique & logistique : Manuel Goepfert

Contact : metmap@orbifly.com




SOURCES & CREDITS :

   NOAA